sensor_id;sensor_type;location;lat;lon;timestamp;temperature;humidity
35258;DHT22;21385;50.878;8.050;2023-04-03T00:01:04;4.90;99.90
35258;DHT22;21385;50.878;8.050;2023-04-03T00:03:31;4.90;99.90
35258;DHT22;21385;50.878;8.050;2023-04-03T00:05:56;4.90;99.90
35258;DHT22;21385;50.878;8.050;2023-04-03T00:08:22;4.90;99.90
35258;DHT22;21385;50.878;8.050;2023-04-03T00:10:48;4.90;99.90
35258;DHT22;21385;50.878;8.050;2023-04-03T00:13:14;4.90;99.90
35258;DHT22;21385;50.878;8.050;2023-04-03T00:15:40;4.90;99.90
35258;DHT22;21385;50.878;8.050;2023-04-03T00:18:06;4.90;99.90
35258;DHT22;21385;50.878;8.050;2023-04-03T00:20:33;4.90;99.90
35258;DHT22;21385;50.878;8.050;2023-04-03T00:22:59;4.90;99.90
35258;DHT22;21385;50.878;8.050;2023-04-03T00:25:25;5.00;99.90
35258;DHT22;21385;50.878;8.050;2023-04-03T00:27:50;5.00;99.90
35258;DHT22;21385;50.878;8.050;2023-04-03T00:30:19;5.00;99.90
35258;DHT22;21385;50.878;8.050;2023-04-03T00:32:46;4.90;99.90
35258;DHT22;21385;50.878;8.050;2023-04-03T00:35:12;4.90;99.90
35258;DHT22;21385;50.878;8.050;2023-04-03T00:37:41;5.00;99.90
35258;DHT22;21385;50.878;8.050;2023-04-03T00:40:08;5.00;99.90
35258;DHT22;21385;50.878;8.050;2023-04-03T00:42:36;5.00;99.90
35258;DHT22;21385;50.878;8.050;2023-04-03T00:47:29;5.00;99.90
35258;DHT22;21385;50.878;8.050;2023-04-03T00:49:56;5.00;99.90
35258;DHT22;21385;50.878;8.050;2023-04-03T00:52:26;4.90;99.90
35258;DHT22;21385;50.878;8.050;2023-04-03T00:54:54;4.90;99.90
35258;DHT22;21385;50.878;8.050;2023-04-03T00:57:22;4.90;99.90
35258;DHT22;21385;50.878;8.050;2023-04-03T00:59:51;4.90;99.90
35258;DHT22;21385;50.878;8.050;2023-04-03T01:02:20;4.90;99.90
35258;DHT22;21385;50.878;8.050;2023-04-03T01:04:45;5.00;99.90
35258;DHT22;21385;50.878;8.050;2023-04-03T01:07:23;4.90;99.90
35258;DHT22;21385;50.878;8.050;2023-04-03T01:09:52;4.90;99.90
35258;DHT22;21385;50.878;8.050;2023-04-03T01:14:57;4.90;99.90
35258;DHT22;21385;50.878;8.050;2023-04-03T01:25:36;4.60;99.90
35258;DHT22;21385;50.878;8.050;2023-04-03T01:28:03;4.50;99.90
35258;DHT22;21385;50.878;8.050;2023-04-03T01:30:33;4.50;99.90
35258;DHT22;21385;50.878;8.050;2023-04-03T01:32:59;4.50;99.90
35258;DHT22;21385;50.878;8.050;2023-04-03T01:35:25;4.50;99.90
35258;DHT22;21385;50.878;8.050;2023-04-03T01:37:51;4.40;99.90
35258;DHT22;21385;50.878;8.050;2023-04-03T01:40:16;4.40;99.90
35258;DHT22;21385;50.878;8.050;2023-04-03T01:42:42;4.30;99.90
35258;DHT22;21385;50.878;8.050;2023-04-03T01:45:08;4.30;99.90
35258;DHT22;21385;50.878;8.050;2023-04-03T01:47:34;4.30;99.90
35258;DHT22;21385;50.878;8.050;2023-04-03T01:49:59;4.30;99.90
35258;DHT22;21385;50.878;8.050;2023-04-03T01:52:25;4.30;99.90
35258;DHT22;21385;50.878;8.050;2023-04-03T01:54:51;4.30;99.90
35258;DHT22;21385;50.878;8.050;2023-04-03T01:57:16;4.20;99.90
35258;DHT22;21385;50.878;8.050;2023-04-03T01:59:42;4.20;99.90
35258;DHT22;21385;50.878;8.050;2023-04-03T02:02:08;4.10;99.90
35258;DHT22;21385;50.878;8.050;2023-04-03T02:04:33;4.10;99.90
35258;DHT22;21385;50.878;8.050;2023-04-03T02:06:59;4.10;99.90
35258;DHT22;21385;50.878;8.050;2023-04-03T02:09:25;4.10;99.90
35258;DHT22;21385;50.878;8.050;2023-04-03T02:11:52;4.10;99.90
35258;DHT22;21385;50.878;8.050;2023-04-03T02:14:17;4.10;99.90
35258;DHT22;21385;50.878;8.050;2023-04-03T02:16:43;4.00;99.90
35258;DHT22;21385;50.878;8.050;2023-04-03T02:19:09;4.00;99.90
35258;DHT22;21385;50.878;8.050;2023-04-03T02:21:34;4.00;99.90
35258;DHT22;21385;50.878;8.050;2023-04-03T02:24:00;3.80;99.90
35258;DHT22;21385;50.878;8.050;2023-04-03T02:26:25;3.80;99.90
35258;DHT22;21385;50.878;8.050;2023-04-03T02:28:51;3.80;99.90
35258;DHT22;21385;50.878;8.050;2023-04-03T02:31:17;3.80;99.90
35258;DHT22;21385;50.878;8.050;2023-04-03T02:33:43;3.80;99.90
35258;DHT22;21385;50.878;8.050;2023-04-03T02:36:09;3.80;99.90
35258;DHT22;21385;50.878;8.050;2023-04-03T02:38:35;3.80;99.90
35258;DHT22;21385;50.878;8.050;2023-04-03T02:41:02;3.90;99.90
35258;DHT22;21385;50.878;8.050;2023-04-03T02:43:28;3.80;99.90
35258;DHT22;21385;50.878;8.050;2023-04-03T02:45:54;3.90;99.90
35258;DHT22;21385;50.878;8.050;2023-04-03T02:48:19;3.80;99.90
35258;DHT22;21385;50.878;8.050;2023-04-03T02:50:45;3.80;99.90
35258;DHT22;21385;50.878;8.050;2023-04-03T02:53:10;3.80;99.90
35258;DHT22;21385;50.878;8.050;2023-04-03T02:55:36;3.80;99.90
35258;DHT22;21385;50.878;8.050;2023-04-03T02:58:02;3.70;99.90
35258;DHT22;21385;50.878;8.050;2023-04-03T03:00:28;3.70;99.90
35258;DHT22;21385;50.878;8.050;2023-04-03T03:02:54;3.50;99.90
35258;DHT22;21385;50.878;8.050;2023-04-03T03:05:20;3.40;99.90
35258;DHT22;21385;50.878;8.050;2023-04-03T03:07:45;3.30;99.90
35258;DHT22;21385;50.878;8.050;2023-04-03T03:10:11;3.20;99.90
35258;DHT22;21385;50.878;8.050;2023-04-03T03:12:36;3.30;99.90
35258;DHT22;21385;50.878;8.050;2023-04-03T03:15:02;3.30;99.90
35258;DHT22;21385;50.878;8.050;2023-04-03T03:17:28;3.20;99.90
35258;DHT22;21385;50.878;8.050;2023-04-03T03:19:53;3.30;99.90
35258;DHT22;21385;50.878;8.050;2023-04-03T03:22:19;3.30;99.90
35258;DHT22;21385;50.878;8.050;2023-04-03T03:24:45;3.30;99.90
35258;DHT22;21385;50.878;8.050;2023-04-03T03:27:10;3.30;99.90
35258;DHT22;21385;50.878;8.050;2023-04-03T03:29:37;3.30;99.90
35258;DHT22;21385;50.878;8.050;2023-04-03T03:32:03;3.20;99.90
35258;DHT22;21385;50.878;8.050;2023-04-03T03:34:28;3.20;99.90
35258;DHT22;21385;50.878;8.050;2023-04-03T03:36:54;3.10;99.90
35258;DHT22;21385;50.878;8.050;2023-04-03T03:39:20;3.10;99.90
35258;DHT22;21385;50.878;8.050;2023-04-03T03:41:46;3.10;99.90
35258;DHT22;21385;50.878;8.050;2023-04-03T03:44:12;3.10;99.90
35258;DHT22;21385;50.878;8.050;2023-04-03T03:46:38;3.20;99.90
35258;DHT22;21385;50.878;8.050;2023-04-03T03:49:03;3.20;99.90
35258;DHT22;21385;50.878;8.050;2023-04-03T03:51:29;3.20;99.90
35258;DHT22;21385;50.878;8.050;2023-04-03T03:53:55;3.20;99.90
35258;DHT22;21385;50.878;8.050;2023-04-03T03:56:21;3.20;99.90
35258;DHT22;21385;50.878;8.050;2023-04-03T03:58:46;3.10;99.90
35258;DHT22;21385;50.878;8.050;2023-04-03T04:01:12;3.10;99.90
35258;DHT22;21385;50.878;8.050;2023-04-03T04:03:37;3.10;99.90
35258;DHT22;21385;50.878;8.050;2023-04-03T04:06:03;3.20;99.90
35258;DHT22;21385;50.878;8.050;2023-04-03T04:08:29;3.10;99.90
35258;DHT22;21385;50.878;8.050;2023-04-03T04:10:55;3.00;99.90
35258;DHT22;21385;50.878;8.050;2023-04-03T04:13:21;3.00;99.90
35258;DHT22;21385;50.878;8.050;2023-04-03T04:15:46;3.00;99.90
35258;DHT22;21385;50.878;8.050;2023-04-03T04:18:12;3.00;99.90
35258;DHT22;21385;50.878;8.050;2023-04-03T04:20:37;2.90;99.90
35258;DHT22;21385;50.878;8.050;2023-04-03T04:23:03;2.80;99.90
35258;DHT22;21385;50.878;8.050;2023-04-03T04:25:29;2.80;99.90
35258;DHT22;21385;50.878;8.050;2023-04-03T04:27:54;2.70;99.90
35258;DHT22;21385;50.878;8.050;2023-04-03T04:30:20;2.70;99.90
35258;DHT22;21385;50.878;8.050;2023-04-03T04:32:45;2.60;99.90
35258;DHT22;21385;50.878;8.050;2023-04-03T04:35:12;2.60;99.90
35258;DHT22;21385;50.878;8.050;2023-04-03T04:37:37;2.50;99.90
35258;DHT22;21385;50.878;8.050;2023-04-03T04:40:03;2.50;99.90
35258;DHT22;21385;50.878;8.050;2023-04-03T04:42:29;2.50;99.90
35258;DHT22;21385;50.878;8.050;2023-04-03T04:44:54;2.40;99.90
35258;DHT22;21385;50.878;8.050;2023-04-03T04:47:20;2.50;99.90
35258;DHT22;21385;50.878;8.050;2023-04-03T04:49:45;2.40;99.90
35258;DHT22;21385;50.878;8.050;2023-04-03T04:52:12;2.50;99.90
35258;DHT22;21385;50.878;8.050;2023-04-03T04:54:38;2.50;99.90
35258;DHT22;21385;50.878;8.050;2023-04-03T04:57:04;2.50;99.90
35258;DHT22;21385;50.878;8.050;2023-04-03T04:59:29;4.40;99.90
35258;DHT22;21385;50.878;8.050;2023-04-03T05:01:55;4.70;99.90
35258;DHT22;21385;50.878;8.050;2023-04-03T05:04:21;4.40;99.90
35258;DHT22;21385;50.878;8.050;2023-04-03T05:06:46;4.10;99.90
35258;DHT22;21385;50.878;8.050;2023-04-03T05:09:12;3.70;99.90
35258;DHT22;21385;50.878;8.050;2023-04-03T05:11:38;3.50;99.90
35258;DHT22;21385;50.878;8.050;2023-04-03T05:14:03;3.30;99.90
35258;DHT22;21385;50.878;8.050;2023-04-03T05:16:32;3.10;99.90
35258;DHT22;21385;50.878;8.050;2023-04-03T05:18:57;3.00;99.90
35258;DHT22;21385;50.878;8.050;2023-04-03T05:21:23;2.90;99.90
35258;DHT22;21385;50.878;8.050;2023-04-03T05:23:51;2.90;99.90
35258;DHT22;21385;50.878;8.050;2023-04-03T05:26:17;2.70;99.90
35258;DHT22;21385;50.878;8.050;2023-04-03T05:28:42;2.60;99.90
35258;DHT22;21385;50.878;8.050;2023-04-03T05:31:08;2.60;99.90
35258;DHT22;21385;50.878;8.050;2023-04-03T05:33:34;2.50;99.90
35258;DHT22;21385;50.878;8.050;2023-04-03T05:36:06;2.50;99.90
35258;DHT22;21385;50.878;8.050;2023-04-03T05:38:32;2.40;99.90
35258;DHT22;21385;50.878;8.050;2023-04-03T05:40:58;2.40;99.90
35258;DHT22;21385;50.878;8.050;2023-04-03T05:43:24;2.30;99.90
35258;DHT22;21385;50.878;8.050;2023-04-03T05:45:50;2.30;99.90
35258;DHT22;21385;50.878;8.050;2023-04-03T05:48:16;2.30;99.90
35258;DHT22;21385;50.878;8.050;2023-04-03T05:50:42;2.30;99.90
35258;DHT22;21385;50.878;8.050;2023-04-03T05:53:19;2.30;99.90
35258;DHT22;21385;50.878;8.050;2023-04-03T05:55:46;2.30;99.90
35258;DHT22;21385;50.878;8.050;2023-04-03T05:58:12;2.30;99.90
35258;DHT22;21385;50.878;8.050;2023-04-03T06:00:37;2.20;99.90
35258;DHT22;21385;50.878;8.050;2023-04-03T06:03:03;2.20;99.90
35258;DHT22;21385;50.878;8.050;2023-04-03T06:05:28;2.20;99.90
35258;DHT22;21385;50.878;8.050;2023-04-03T06:07:54;2.10;99.90
35258;DHT22;21385;50.878;8.050;2023-04-03T06:10:19;2.20;99.90
35258;DHT22;21385;50.878;8.050;2023-04-03T06:12:45;2.20;99.90
35258;DHT22;21385;50.878;8.050;2023-04-03T06:15:11;2.20;99.90
35258;DHT22;21385;50.878;8.050;2023-04-03T06:17:37;2.20;99.90
35258;DHT22;21385;50.878;8.050;2023-04-03T06:20:03;2.20;99.90
35258;DHT22;21385;50.878;8.050;2023-04-03T06:22:29;2.20;99.90
35258;DHT22;21385;50.878;8.050;2023-04-03T06:24:56;2.20;99.90
35258;DHT22;21385;50.878;8.050;2023-04-03T06:27:22;2.20;99.90
35258;DHT22;21385;50.878;8.050;2023-04-03T06:29:48;2.30;99.90
35258;DHT22;21385;50.878;8.050;2023-04-03T06:32:15;2.40;99.90
35258;DHT22;21385;50.878;8.050;2023-04-03T06:34:41;2.40;99.90
35258;DHT22;21385;50.878;8.050;2023-04-03T06:37:16;2.50;99.90
35258;DHT22;21385;50.878;8.050;2023-04-03T06:39:42;2.50;99.90
35258;DHT22;21385;50.878;8.050;2023-04-03T06:42:08;2.50;99.90
35258;DHT22;21385;50.878;8.050;2023-04-03T06:44:34;2.50;99.90
35258;DHT22;21385;50.878;8.050;2023-04-03T06:47:00;2.50;99.90
35258;DHT22;21385;50.878;8.050;2023-04-03T06:49:25;2.60;99.90
35258;DHT22;21385;50.878;8.050;2023-04-03T06:51:51;2.70;99.90
35258;DHT22;21385;50.878;8.050;2023-04-03T06:54:17;2.70;99.90
35258;DHT22;21385;50.878;8.050;2023-04-03T06:56:43;2.70;99.90
35258;DHT22;21385;50.878;8.050;2023-04-03T06:59:10;2.70;99.90
35258;DHT22;21385;50.878;8.050;2023-04-03T07:01:38;2.80;99.90
35258;DHT22;21385;50.878;8.050;2023-04-03T07:04:03;2.70;99.90
35258;DHT22;21385;50.878;8.050;2023-04-03T07:06:29;2.70;99.90
35258;DHT22;21385;50.878;8.050;2023-04-03T07:08:56;2.80;99.90
35258;DHT22;21385;50.878;8.050;2023-04-03T07:11:22;2.80;99.90
35258;DHT22;21385;50.878;8.050;2023-04-03T07:13:48;2.80;99.90
35258;DHT22;21385;50.878;8.050;2023-04-03T07:16:13;2.80;99.90
35258;DHT22;21385;50.878;8.050;2023-04-03T07:18:39;2.90;99.90
35258;DHT22;21385;50.878;8.050;2023-04-03T07:21:05;3.00;99.90
35258;DHT22;21385;50.878;8.050;2023-04-03T07:23:31;3.10;99.90
35258;DHT22;21385;50.878;8.050;2023-04-03T07:25:57;3.30;99.90
35258;DHT22;21385;50.878;8.050;2023-04-03T07:28:23;3.40;99.90
35258;DHT22;21385;50.878;8.050;2023-04-03T07:30:52;3.60;99.90
35258;DHT22;21385;50.878;8.050;2023-04-03T07:33:20;3.60;99.90
35258;DHT22;21385;50.878;8.050;2023-04-03T07:35:46;3.50;99.90
35258;DHT22;21385;50.878;8.050;2023-04-03T07:38:12;3.60;99.90
35258;DHT22;21385;50.878;8.050;2023-04-03T07:40:38;3.60;99.90
35258;DHT22;21385;50.878;8.050;2023-04-03T07:43:04;3.60;99.90
35258;DHT22;21385;50.878;8.050;2023-04-03T07:45:30;3.70;99.90
35258;DHT22;21385;50.878;8.050;2023-04-03T07:47:56;3.80;99.90
35258;DHT22;21385;50.878;8.050;2023-04-03T07:50:22;3.90;99.90
35258;DHT22;21385;50.878;8.050;2023-04-03T07:52:48;3.90;99.90
35258;DHT22;21385;50.878;8.050;2023-04-03T07:55:14;4.10;99.90
35258;DHT22;21385;50.878;8.050;2023-04-03T07:57:40;4.10;99.90
35258;DHT22;21385;50.878;8.050;2023-04-03T08:00:07;4.20;99.90
35258;DHT22;21385;50.878;8.050;2023-04-03T08:02:32;4.30;99.90
35258;DHT22;21385;50.878;8.050;2023-04-03T08:04:58;4.30;99.90
35258;DHT22;21385;50.878;8.050;2023-04-03T08:07:24;4.40;99.90
35258;DHT22;21385;50.878;8.050;2023-04-03T08:09:50;4.50;99.90
35258;DHT22;21385;50.878;8.050;2023-04-03T08:12:17;4.50;99.90
35258;DHT22;21385;50.878;8.050;2023-04-03T08:14:42;4.60;99.90
35258;DHT22;21385;50.878;8.050;2023-04-03T08:17:09;4.70;99.90
35258;DHT22;21385;50.878;8.050;2023-04-03T08:19:37;4.90;99.90
35258;DHT22;21385;50.878;8.050;2023-04-03T08:22:03;5.00;99.90
35258;DHT22;21385;50.878;8.050;2023-04-03T08:24:30;5.00;99.90
35258;DHT22;21385;50.878;8.050;2023-04-03T08:26:56;5.10;99.90
35258;DHT22;21385;50.878;8.050;2023-04-03T08:29:22;5.20;99.90
35258;DHT22;21385;50.878;8.050;2023-04-03T08:31:48;5.30;99.90
35258;DHT22;21385;50.878;8.050;2023-04-03T08:34:15;5.40;99.90
35258;DHT22;21385;50.878;8.050;2023-04-03T08:36:41;5.40;99.90
35258;DHT22;21385;50.878;8.050;2023-04-03T08:39:07;5.50;99.90
35258;DHT22;21385;50.878;8.050;2023-04-03T08:41:39;5.60;99.90
35258;DHT22;21385;50.878;8.050;2023-04-03T08:49:48;6.00;99.90
35258;DHT22;21385;50.878;8.050;2023-04-03T08:52:50;6.00;99.90
35258;DHT22;21385;50.878;8.050;2023-04-03T08:57:53;6.10;99.90
35258;DHT22;21385;50.878;8.050;2023-04-03T09:00:25;6.10;99.90
35258;DHT22;21385;50.878;8.050;2023-04-03T09:02:55;6.10;99.90
35258;DHT22;21385;50.878;8.050;2023-04-03T09:05:33;6.30;99.90
35258;DHT22;21385;50.878;8.050;2023-04-03T09:10:42;6.30;99.90
35258;DHT22;21385;50.878;8.050;2023-04-03T09:15:53;6.30;99.90
35258;DHT22;21385;50.878;8.050;2023-04-03T09:18:30;6.40;99.90
35258;DHT22;21385;50.878;8.050;2023-04-03T09:21:13;6.50;99.90
35258;DHT22;21385;50.878;8.050;2023-04-03T09:23:43;6.70;99.90
35258;DHT22;21385;50.878;8.050;2023-04-03T09:26:16;6.90;99.90
35258;DHT22;21385;50.878;8.050;2023-04-03T09:28:42;7.00;99.90
35258;DHT22;21385;50.878;8.050;2023-04-03T09:31:37;7.10;98.00
35258;DHT22;21385;50.878;8.050;2023-04-03T09:39:04;7.20;95.70
35258;DHT22;21385;50.878;8.050;2023-04-03T09:41:30;7.30;95.10
35258;DHT22;21385;50.878;8.050;2023-04-03T09:43:57;7.30;93.70
35258;DHT22;21385;50.878;8.050;2023-04-03T09:46:31;7.40;93.80
35258;DHT22;21385;50.878;8.050;2023-04-03T09:49:04;7.40;93.80
35258;DHT22;21385;50.878;8.050;2023-04-03T09:51:31;7.40;94.20
35258;DHT22;21385;50.878;8.050;2023-04-03T09:53:57;7.60;93.40
35258;DHT22;21385;50.878;8.050;2023-04-03T09:56:30;7.60;94.20
35258;DHT22;21385;50.878;8.050;2023-04-03T10:06:41;8.40;93.20
35258;DHT22;21385;50.878;8.050;2023-04-03T10:12:07;8.60;91.60
35258;DHT22;21385;50.878;8.050;2023-04-03T10:14:36;8.70;90.90
35258;DHT22;21385;50.878;8.050;2023-04-03T10:20:43;9.10;87.90
35258;DHT22;21385;50.878;8.050;2023-04-03T10:28:20;9.50;79.50
35258;DHT22;21385;50.878;8.050;2023-04-03T10:31:13;9.30;76.50
35258;DHT22;21385;50.878;8.050;2023-04-03T10:34:36;9.50;89.80
35258;DHT22;21385;50.878;8.050;2023-04-03T10:49:53;9.90;73.80
35258;DHT22;21385;50.878;8.050;2023-04-03T10:57:40;10.20;75.60
35258;DHT22;21385;50.878;8.050;2023-04-03T11:00:21;10.10;76.60
35258;DHT22;21385;50.878;8.050;2023-04-03T11:02:56;10.50;76.40
35258;DHT22;21385;50.878;8.050;2023-04-03T11:05:37;10.60;77.20
35258;DHT22;21385;50.878;8.050;2023-04-03T11:10:57;11.00;70.00
35258;DHT22;21385;50.878;8.050;2023-04-03T11:13:26;11.10;69.10
35258;DHT22;21385;50.878;8.050;2023-04-03T11:15:54;11.20;69.40
35258;DHT22;21385;50.878;8.050;2023-04-03T11:18:48;11.40;68.50
35258;DHT22;21385;50.878;8.050;2023-04-03T11:21:39;11.70;69.30
35258;DHT22;21385;50.878;8.050;2023-04-03T11:24:22;11.80;68.90
35258;DHT22;21385;50.878;8.050;2023-04-03T11:26:49;11.90;69.70
35258;DHT22;21385;50.878;8.050;2023-04-03T11:29:22;12.00;70.70
35258;DHT22;21385;50.878;8.050;2023-04-03T11:32:09;12.20;64.70
35258;DHT22;21385;50.878;8.050;2023-04-03T11:34:42;12.50;70.90
35258;DHT22;21385;50.878;8.050;2023-04-03T11:37:14;12.80;62.20
35258;DHT22;21385;50.878;8.050;2023-04-03T11:39:54;12.70;58.70
35258;DHT22;21385;50.878;8.050;2023-04-03T11:42:39;12.70;62.30
35258;DHT22;21385;50.878;8.050;2023-04-03T11:50:58;13.00;59.70
35258;DHT22;21385;50.878;8.050;2023-04-03T11:53:37;13.10;60.50
35258;DHT22;21385;50.878;8.050;2023-04-03T12:01:52;13.80;57.20
35258;DHT22;21385;50.878;8.050;2023-04-03T12:04:23;14.00;58.60
35258;DHT22;21385;50.878;8.050;2023-04-03T12:06:50;14.10;55.60
35258;DHT22;21385;50.878;8.050;2023-04-03T12:09:26;14.10;55.20
35258;DHT22;21385;50.878;8.050;2023-04-03T12:11:53;14.10;55.60
35258;DHT22;21385;50.878;8.050;2023-04-03T12:14:22;14.10;54.80
35258;DHT22;21385;50.878;8.050;2023-04-03T12:16:50;14.10;54.30
35258;DHT22;21385;50.878;8.050;2023-04-03T12:27:12;14.70;52.70
35258;DHT22;21385;50.878;8.050;2023-04-03T12:29:46;14.80;51.30
35258;DHT22;21385;50.878;8.050;2023-04-03T12:38:02;14.70;51.60
35258;DHT22;21385;50.878;8.050;2023-04-03T12:46:22;15.30;47.70
35258;DHT22;21385;50.878;8.050;2023-04-03T12:48:57;15.40;48.10
35258;DHT22;21385;50.878;8.050;2023-04-03T12:51:42;15.60;48.70
35258;DHT22;21385;50.878;8.050;2023-04-03T12:54:33;15.80;47.60
35258;DHT22;21385;50.878;8.050;2023-04-03T12:59:41;16.10;47.40
35258;DHT22;21385;50.878;8.050;2023-04-03T13:02:38;16.50;45.80
35258;DHT22;21385;50.878;8.050;2023-04-03T13:05:08;16.60;44.10
35258;DHT22;21385;50.878;8.050;2023-04-03T13:07:37;16.40;43.10
35258;DHT22;21385;50.878;8.050;2023-04-03T13:12:56;16.20;44.40
35258;DHT22;21385;50.878;8.050;2023-04-03T13:15:24;16.20;44.00
35258;DHT22;21385;50.878;8.050;2023-04-03T13:17:50;16.20;46.40
35258;DHT22;21385;50.878;8.050;2023-04-03T13:20:22;16.30;46.20
35258;DHT22;21385;50.878;8.050;2023-04-03T13:22:56;16.60;46.40
35258;DHT22;21385;50.878;8.050;2023-04-03T13:25:24;17.10;44.60
35258;DHT22;21385;50.878;8.050;2023-04-03T13:27:50;17.30;42.70
35258;DHT22;21385;50.878;8.050;2023-04-03T13:30:37;17.40;41.50
35258;DHT22;21385;50.878;8.050;2023-04-03T13:33:05;17.30;41.60
35258;DHT22;21385;50.878;8.050;2023-04-03T13:38:05;17.30;44.10
35258;DHT22;21385;50.878;8.050;2023-04-03T13:40:31;17.50;42.10
35258;DHT22;21385;50.878;8.050;2023-04-03T13:43:18;17.80;41.20
35258;DHT22;21385;50.878;8.050;2023-04-03T13:48:45;17.90;39.30
35258;DHT22;21385;50.878;8.050;2023-04-03T13:56:35;18.50;39.80
35258;DHT22;21385;50.878;8.050;2023-04-03T14:01:55;19.10;40.80
35258;DHT22;21385;50.878;8.050;2023-04-03T14:04:55;19.50;49.80
35258;DHT22;21385;50.878;8.050;2023-04-03T14:07:24;19.80;52.30
35258;DHT22;21385;50.878;8.050;2023-04-03T14:09:51;20.10;41.50
35258;DHT22;21385;50.878;8.050;2023-04-03T14:12:46;20.20;45.90
35258;DHT22;21385;50.878;8.050;2023-04-03T14:15:18;20.40;42.10
35258;DHT22;21385;50.878;8.050;2023-04-03T14:17:44;19.90;37.80
35258;DHT22;21385;50.878;8.050;2023-04-03T14:20:15;19.60;38.40
35258;DHT22;21385;50.878;8.050;2023-04-03T14:22:42;19.40;37.20
35258;DHT22;21385;50.878;8.050;2023-04-03T14:25:08;19.10;36.80
35258;DHT22;21385;50.878;8.050;2023-04-03T14:27:41;19.10;38.10
35258;DHT22;21385;50.878;8.050;2023-04-03T14:30:14;19.10;39.90
35258;DHT22;21385;50.878;8.050;2023-04-03T14:32:41;19.40;39.60
35258;DHT22;21385;50.878;8.050;2023-04-03T14:35:07;19.50;38.50
35258;DHT22;21385;50.878;8.050;2023-04-03T14:37:32;19.60;37.90
35258;DHT22;21385;50.878;8.050;2023-04-03T14:40:00;19.60;38.00
35258;DHT22;21385;50.878;8.050;2023-04-03T14:42:30;19.80;39.00
35258;DHT22;21385;50.878;8.050;2023-04-03T14:44:56;19.90;37.10
35258;DHT22;21385;50.878;8.050;2023-04-03T14:47:28;20.00;37.80
35258;DHT22;21385;50.878;8.050;2023-04-03T14:49:54;20.10;37.90
35258;DHT22;21385;50.878;8.050;2023-04-03T14:52:23;20.30;36.70
35258;DHT22;21385;50.878;8.050;2023-04-03T14:54:50;20.20;36.30
35258;DHT22;21385;50.878;8.050;2023-04-03T14:57:16;19.90;36.70
35258;DHT22;21385;50.878;8.050;2023-04-03T14:59:43;19.90;36.70
35258;DHT22;21385;50.878;8.050;2023-04-03T15:02:29;19.80;36.50
35258;DHT22;21385;50.878;8.050;2023-04-03T15:04:56;20.00;36.60
35258;DHT22;21385;50.878;8.050;2023-04-03T15:07:23;20.00;40.90
35258;DHT22;21385;50.878;8.050;2023-04-03T15:09:49;20.30;35.40
35258;DHT22;21385;50.878;8.050;2023-04-03T15:12:15;20.30;35.30
35258;DHT22;21385;50.878;8.050;2023-04-03T15:14:41;20.20;34.30
35258;DHT22;21385;50.878;8.050;2023-04-03T15:17:13;19.90;35.10
35258;DHT22;21385;50.878;8.050;2023-04-03T15:19:41;19.90;35.70
35258;DHT22;21385;50.878;8.050;2023-04-03T15:22:08;20.10;36.20
35258;DHT22;21385;50.878;8.050;2023-04-03T15:24:34;20.00;34.50
35258;DHT22;21385;50.878;8.050;2023-04-03T15:27:00;20.20;37.50
35258;DHT22;21385;50.878;8.050;2023-04-03T15:29:27;20.10;37.70
35258;DHT22;21385;50.878;8.050;2023-04-03T15:31:52;20.20;37.20
35258;DHT22;21385;50.878;8.050;2023-04-03T15:34:19;20.30;43.10
35258;DHT22;21385;50.878;8.050;2023-04-03T15:36:44;20.40;33.20
35258;DHT22;21385;50.878;8.050;2023-04-03T15:39:10;20.40;33.30
35258;DHT22;21385;50.878;8.050;2023-04-03T15:41:35;20.30;33.90
35258;DHT22;21385;50.878;8.050;2023-04-03T15:44:01;20.30;39.40
35258;DHT22;21385;50.878;8.050;2023-04-03T15:46:26;20.50;34.00
35258;DHT22;21385;50.878;8.050;2023-04-03T15:48:52;20.40;33.70
35258;DHT22;21385;50.878;8.050;2023-04-03T15:51:18;20.30;33.50
35258;DHT22;21385;50.878;8.050;2023-04-03T15:53:43;20.20;34.70
35258;DHT22;21385;50.878;8.050;2023-04-03T15:56:09;20.40;35.30
35258;DHT22;21385;50.878;8.050;2023-04-03T15:58:35;20.60;35.70
35258;DHT22;21385;50.878;8.050;2023-04-03T16:01:01;20.70;35.30
35258;DHT22;21385;50.878;8.050;2023-04-03T16:03:26;20.90;34.60
35258;DHT22;21385;50.878;8.050;2023-04-03T16:05:52;20.50;34.10
35258;DHT22;21385;50.878;8.050;2023-04-03T16:08:18;20.10;34.60
35258;DHT22;21385;50.878;8.050;2023-04-03T16:10:44;19.90;35.10
35258;DHT22;21385;50.878;8.050;2023-04-03T16:13:11;19.70;35.60
35258;DHT22;21385;50.878;8.050;2023-04-03T16:15:37;19.70;35.30
35258;DHT22;21385;50.878;8.050;2023-04-03T16:18:03;19.70;34.40
35258;DHT22;21385;50.878;8.050;2023-04-03T16:20:30;19.60;34.80
35258;DHT22;21385;50.878;8.050;2023-04-03T16:22:58;19.60;34.90
35258;DHT22;21385;50.878;8.050;2023-04-03T16:25:24;19.40;35.20
35258;DHT22;21385;50.878;8.050;2023-04-03T16:27:50;19.20;34.80
35258;DHT22;21385;50.878;8.050;2023-04-03T16:30:15;19.10;35.00
35258;DHT22;21385;50.878;8.050;2023-04-03T16:32:41;19.10;35.70
35258;DHT22;21385;50.878;8.050;2023-04-03T16:35:07;19.10;35.50
35258;DHT22;21385;50.878;8.050;2023-04-03T16:37:35;19.10;34.90
35258;DHT22;21385;50.878;8.050;2023-04-03T16:40:01;18.90;34.50
35258;DHT22;21385;50.878;8.050;2023-04-03T16:42:28;18.30;35.80
35258;DHT22;21385;50.878;8.050;2023-04-03T16:44:53;17.10;36.40
35258;DHT22;21385;50.878;8.050;2023-04-03T16:47:19;16.30;37.70
35258;DHT22;21385;50.878;8.050;2023-04-03T16:49:45;16.20;38.60
35258;DHT22;21385;50.878;8.050;2023-04-03T16:52:11;15.40;39.10
35258;DHT22;21385;50.878;8.050;2023-04-03T16:54:37;15.10;40.10
35258;DHT22;21385;50.878;8.050;2023-04-03T16:57:03;14.70;40.50
35258;DHT22;21385;50.878;8.050;2023-04-03T16:59:28;14.70;41.30
35258;DHT22;21385;50.878;8.050;2023-04-03T17:01:54;14.80;41.10
35258;DHT22;21385;50.878;8.050;2023-04-03T17:04:19;14.90;41.30
35258;DHT22;21385;50.878;8.050;2023-04-03T17:06:45;15.00;40.80
35258;DHT22;21385;50.878;8.050;2023-04-03T17:09:11;15.20;41.80
35258;DHT22;21385;50.878;8.050;2023-04-03T17:11:37;15.10;40.80
35258;DHT22;21385;50.878;8.050;2023-04-03T17:14:03;14.90;41.20
35258;DHT22;21385;50.878;8.050;2023-04-03T17:16:29;14.80;41.70
35258;DHT22;21385;50.878;8.050;2023-04-03T17:18:56;14.80;41.80
35258;DHT22;21385;50.878;8.050;2023-04-03T17:21:22;14.70;41.20
35258;DHT22;21385;50.878;8.050;2023-04-03T17:23:51;14.30;41.30
35258;DHT22;21385;50.878;8.050;2023-04-03T17:26:19;14.00;42.50
35258;DHT22;21385;50.878;8.050;2023-04-03T17:28:46;13.80;42.50
35258;DHT22;21385;50.878;8.050;2023-04-03T17:31:11;13.70;43.10
35258;DHT22;21385;50.878;8.050;2023-04-03T17:33:37;13.60;43.30
35258;DHT22;21385;50.878;8.050;2023-04-03T17:36:03;13.60;44.00
35258;DHT22;21385;50.878;8.050;2023-04-03T17:38:30;13.50;44.00
35258;DHT22;21385;50.878;8.050;2023-04-03T17:40:57;13.40;44.30
35258;DHT22;21385;50.878;8.050;2023-04-03T17:43:24;13.10;44.80
35258;DHT22;21385;50.878;8.050;2023-04-03T17:45:50;13.00;45.10
35258;DHT22;21385;50.878;8.050;2023-04-03T17:48:15;12.80;45.50